Terminal Aerodrome Forecast
Issued by NWS Shreveport, LA

Home | Current Version | Previous Version | Text Only | Print | Product List | Glossary On
Versions: 1 2 3 4 5 6 7 8 9 10 11 12 13 14 15 16 17 18 19 20
000
FTUS44 KSHV 272326 CCA
TAFELD
TAF COR
KELD 272326Z 2800/2824 12006KT P6SM SKC
     FM281100 14010KT P6SM BKN030
      TEMPO 2811/2815 4SM BR OVC020
     FM281900 18015G25KT P6SM SCT040=

USA.gov is the U.S. government's official web portal to all federal, state and local government web resources and services.